Time;durP1;ratioP1;P1;durP2;ratioP2;P2;SDS_P1;SDS_P2;PMS_P1;PMS_P2;Temp;Humidity;BMP_temperature;BMP_pressure;BME280_temperature;BME280_humidity;BME280_pressure;Samples;Min_cycle;Max_cycle;Signal;HPM_P1;HPM_P2
2023/12/26 00:01:45;;;;;;;8.07;7.13;;;;;;;22.51;33.66;95189.31;6128290;28;110370;-57
2023/12/26 00:04:48;;;;;;;7.47;6.73;;;;;;;22.49;33.80;95181.59;6114747;28;109238;-56
2023/12/26 00:07:52;;;;;;;8.10;6.80;;;;;;;22.51;33.49;95181.31;6114613;28;109226;-56
2023/12/26 00:10:56;;;;;;;7.63;6.83;;;;;;;22.52;34.01;95177.56;6117668;28;109312;-56
2023/12/26 00:13:59;;;;;;;7.13;6.43;;;;;;;22.50;33.97;95177.06;6122763;28;109093;-56
2023/12/26 00:17:02;;;;;;;7.10;6.40;;;;;;;22.50;34.11;95185.84;6114668;28;110119;-57
2023/12/26 00:20:07;;;;;;;7.63;6.40;;;;;;;22.49;33.45;95189.63;6114139;28;109573;-56
2023/12/26 00:23:11;;;;;;;7.20;6.53;;;;;;;22.49;33.98;95192.28;6109827;28;110125;-57
2023/12/26 00:26:15;;;;;;;9.20;6.50;;;;;;;22.47;34.01;95183.78;6109065;28;109667;-57
2023/12/26 00:29:18;;;;;;;8.20;6.10;;;;;;;22.45;33.79;95177.19;6126468;28;109495;-56
2023/12/26 00:32:22;;;;;;;6.40;5.80;;;;;;;22.47;34.03;95189.13;6116821;28;109219;-59
2023/12/26 00:35:25;;;;;;;6.67;5.87;;;;;;;22.46;33.92;95192.88;6104688;28;109245;-59
2023/12/26 00:38:28;;;;;;;6.30;5.70;;;;;;;22.47;33.45;95207.81;6114539;28;109340;-59
2023/12/26 00:41:33;;;;;;;6.50;5.90;;;;;;;22.46;33.66;95200.91;6114251;28;109212;-59
2023/12/26 00:44:36;;;;;;;6.13;5.53;;;;;;;22.46;33.33;95211.56;6132202;28;109033;-59
2023/12/26 00:47:39;;;;;;;6.43;5.77;;;;;;;22.46;33.93;95213.44;6125238;28;109369;-60
2023/12/26 00:50:43;;;;;;;5.97;5.37;;;;;;;22.49;33.70;95213.63;6137582;28;110027;-59
2023/12/26 00:53:46;;;;;;;5.70;5.20;;;;;;;22.52;33.15;95217.56;6138735;28;110064;-63
2023/12/26 00:56:51;;;;;;;5.77;5.17;;;;;;;22.48;33.83;95222.69;6136757;28;108978;-58
2023/12/26 00:59:54;;;;;;;6.10;5.17;;;;;;;22.53;33.54;95222.59;6129751;28;108997;-59
2023/12/26 01:02:57;;;;;;;5.33;4.83;;;;;;;22.54;33.26;95237.50;6136770;28;108969;-59
2023/12/26 01:06:01;;;;;;;5.97;5.47;;;;;;;22.53;33.15;95237.81;6136942;28;108995;-58
2023/12/26 01:09:05;;;;;;;6.50;5.43;;;;;;;22.53;33.36;95238.59;6127770;28;110155;-58
2023/12/26 01:12:09;;;;;;;6.63;5.70;;;;;;;22.53;33.33;95249.28;6137812;28;111088;-59
2023/12/26 01:15:13;;;;;;;7.10;6.13;;;;;;;22.52;33.78;95239.69;6120589;28;110335;-59
2023/12/26 01:18:16;;;;;;;7.33;5.90;;;;;;;22.51;33.19;95238.09;6132879;28;109114;-59
2023/12/26 01:21:19;;;;;;;7.37;5.50;;;;;;;22.50;33.97;95241.06;6126794;28;110460;-59
2023/12/26 01:24:23;;;;;;;6.50;5.90;;;;;;;22.49;33.46;95234.94;6137112;28;108590;-59
2023/12/26 01:27:27;;;;;;;6.23;5.57;;;;;;;22.49;33.88;95236.81;6137871;28;110033;-59
2023/12/26 01:30:30;;;;;;;6.20;5.60;;;;;;;22.47;33.91;95231.81;6116477;28;110179;-59
2023/12/26 01:33:34;;;;;;;6.67;6.00;;;;;;;22.48;33.55;95235.25;6106873;28;109908;-59
2023/12/26 01:36:37;;;;;;;6.67;6.07;;;;;;;22.46;33.45;95229.44;6118041;28;110015;-59
2023/12/26 01:39:41;;;;;;;7.13;6.43;;;;;;;22.45;33.65;95220.66;6126382;28;109447;-58
2023/12/26 01:42:47;;;;;;;6.73;5.80;;;;;;;22.45;33.74;95231.31;6134918;28;109325;-55
2023/12/26 01:45:54;;;;;;;7.03;6.40;;;;;;;22.45;33.30;95233.19;6136269;28;109016;-55
2023/12/26 01:48:57;;;;;;;7.30;6.60;;;;;;;22.40;33.18;95220.78;6134964;28;109009;-55
2023/12/26 01:52:02;;;;;;;6.97;6.10;;;;;;;22.45;33.72;95233.19;6135099;28;110569;-74
2023/12/26 01:55:07;;;;;;;7.10;6.10;;;;;;;22.44;33.27;95229.75;6116806;28;109106;-56
2023/12/26 01:58:12;;;;;;;6.63;5.93;;;;;;;22.44;33.44;95228.97;6121375;28;109094;-56
2023/12/26 02:01:16;;;;;;;5.93;5.40;;;;;;;22.41;33.29;95227.69;6128412;28;109158;-56
2023/12/26 02:04:20;;;;;;;6.80;5.87;;;;;;;22.44;33.39;95231.63;6138701;28;108914;-55
2023/12/26 02:07:23;;;;;;;6.70;5.97;;;;;;;22.44;33.28;95237.75;6117492;28;110253;-56
2023/12/26 02:10:26;;;;;;;6.80;6.10;;;;;;;22.43;33.19;95244.16;6137085;28;110087;-56
2023/12/26 02:13:31;;;;;;;5.93;5.40;;;;;;;22.42;33.62;95231.94;6129907;28;110195;-56
2023/12/26 02:16:36;;;;;;;5.93;5.43;;;;;;;22.42;33.08;95221.25;6112480;28;110025;-56
2023/12/26 02:19:42;;;;;;;5.43;4.90;;;;;;;22.42;33.12;95231.94;6124312;28;109424;-55
2023/12/26 02:22:46;;;;;;;5.97;5.40;;;;;;;22.41;33.16;95233.03;6140984;28;108991;-56
2023/12/26 02:25:52;;;;;;;6.10;5.37;;;;;;;22.40;32.95;95237.56;6141108;28;109051;-56
2023/12/26 02:28:56;;;;;;;5.53;5.03;;;;;;;22.40;33.53;95223.44;6127457;28;110192;-56
2023/12/26 02:32:01;;;;;;;5.80;5.17;;;;;;;22.40;33.54;95229.56;6140451;28;109359;-56
2023/12/26 02:35:06;;;;;;;6.70;5.30;;;;;;;22.38;33.05;95233.63;6140387;28;108732;-56
2023/12/26 02:38:09;;;;;;;4.90;4.50;;;;;;;22.38;33.52;95228.28;6132816;28;109131;-56
2023/12/26 02:41:14;;;;;;;5.47;5.00;;;;;;;22.37;33.04;95238.19;6127981;28;109197;-56
2023/12/26 02:44:17;;;;;;;5.33;4.83;;;;;;;22.38;33.44;95233.63;6120287;28;110283;-55
2023/12/26 02:47:20;;;;;;;6.00;5.40;;;;;;;22.38;33.01;95245.09;6117987;28;110129;-56
2023/12/26 02:50:24;;;;;;;5.63;5.03;;;;;;;22.37;33.42;95248.84;6139616;28;110226;-55
2023/12/26 02:53:27;;;;;;;5.10;4.70;;;;;;;22.38;32.87;95244.28;6131161;28;109247;-56
2023/12/26 02:56:31;;;;;;;5.30;4.80;;;;;;;22.38;33.07;95238.97;6131661;28;109542;-56
2023/12/26 02:59:35;;;;;;;6.83;5.17;;;;;;;22.38;32.88;95244.28;6118864;28;109023;-56
2023/12/26 03:02:38;;;;;;;4.93;4.40;;;;;;;22.38;33.39;95246.97;6106884;28;110019;-56
2023/12/26 03:05:42;;;;;;;5.67;5.10;;;;;;;22.38;32.82;95244.28;6114778;28;109007;-56
2023/12/26 03:08:45;;;;;;;5.53;4.97;;;;;;;22.37;33.18;95242.72;6129362;28;109018;-57
2023/12/26 03:11:49;;;;;;;5.33;4.83;;;;;;;22.37;33.28;95250.72;6138097;28;109300;-56
2023/12/26 03:14:53;;;;;;;6.03;5.43;;;;;;;22.36;32.98;95251.81;6128425;28;109263;-56
2023/12/26 03:17:56;;;;;;;6.10;5.40;;;;;;;22.34;33.13;95260.09;6138710;28;109009;-56
2023/12/26 03:20:59;;;;;;;5.40;4.90;;;;;;;22.35;32.57;95258.22;6139961;28;109147;-56
2023/12/26 03:24:02;;;;;;;5.80;5.30;;;;;;;22.32;33.29;95261.47;6139843;28;109141;-56
2023/12/26 03:27:07;;;;;;;5.90;5.40;;;;;;;22.33;33.13;95252.38;6128839;28;110815;-56
2023/12/26 03:30:11;;;;;;;6.00;5.40;;;;;;;22.32;32.96;95261.47;6138185;28;109095;-67
2023/12/26 03:33:14;;;;;;;6.00;5.40;;;;;;;22.31;33.00;95266.03;6138153;28;109607;-56
2023/12/26 03:36:18;;;;;;;5.50;5.00;;;;;;;22.32;33.01;95261.47;6131163;28;110318;-56
2023/12/26 03:39:21;;;;;;;5.70;5.20;;;;;;;22.30;33.03;95258.34;6128391;28;110366;-56
2023/12/26 03:42:26;;;;;;;5.93;5.33;;;;;;;22.30;32.54;95256.44;6132519;28;109218;-57
2023/12/26 03:45:29;;;;;;;7.43;5.60;;;;;;;22.30;32.94;95261.78;6115168;28;109416;-56
2023/12/26 03:48:33;;;;;;;6.40;5.30;;;;;;;22.30;32.89;95259.13;6117159;28;108936;-55
2023/12/26 03:51:36;;;;;;;6.40;5.90;;;;;;;22.30;33.06;95263.66;6138287;28;109437;-56
2023/12/26 03:54:41;;;;;;;6.17;5.57;;;;;;;22.29;32.55;95254.88;6137397;28;109175;-56
2023/12/26 03:57:46;;;;;;;6.07;5.57;;;;;;;22.29;32.89;95259.41;6137895;28;109020;-56
2023/12/26 04:00:50;;;;;;;6.03;5.47;;;;;;;22.29;32.68;95256.75;6127531;28;109528;-56
2023/12/26 04:03:54;;;;;;;7.67;6.23;;;;;;;22.31;32.85;95257.25;6139392;28;109020;-56
2023/12/26 04:06:57;;;;;;;6.50;5.90;;;;;;;22.30;32.77;95251.13;6124079;28;109010;-56
2023/12/26 04:10:01;;;;;;;5.80;5.30;;;;;;;22.32;32.47;95262.25;6136215;28;109244;-56
2023/12/26 04:13:05;;;;;;;6.27;5.67;;;;;;;22.31;32.27;95260.69;6131035;28;109222;-55
2023/12/26 04:16:08;;;;;;;6.30;5.70;;;;;;;22.30;32.41;95263.66;6137166;28;108768;-56
2023/12/26 04:19:12;;;;;;;5.90;5.33;;;;;;;22.30;32.65;95263.66;6137599;28;109809;-56
2023/12/26 04:22:15;;;;;;;5.80;5.27;;;;;;;22.29;32.85;95267.41;6126677;28;108976;-55
2023/12/26 04:25:20;;;;;;;6.60;5.97;;;;;;;22.28;32.73;95273.84;6137965;28;111177;-56
2023/12/26 04:28:24;;;;;;;6.33;5.73;;;;;;;22.27;32.77;95267.72;6137608;28;109154;-56
2023/12/26 04:31:28;;;;;;;5.80;5.27;;;;;;;22.27;32.35;95278.38;6135360;28;109988;-57
2023/12/26 04:34:31;;;;;;;6.90;6.20;;;;;;;22.26;32.50;95278.69;6128089;28;109190;-56
2023/12/26 04:37:34;;;;;;;5.67;5.17;;;;;;;22.24;32.37;95270.22;6125828;28;110301;-56
2023/12/26 04:40:37;;;;;;;5.50;5.00;;;;;;;22.28;32.46;95287.16;6114112;28;110069;-56
2023/12/26 04:43:42;;;;;;;5.77;5.27;;;;;;;22.27;32.37;95286.38;6123134;28;110155;-56
2023/12/26 04:46:46;;;;;;;7.80;5.93;;;;;;;22.26;32.69;95289.34;6126082;28;108989;-56
2023/12/26 04:49:49;;;;;;;5.60;5.10;;;;;;;22.26;32.37;95286.69;6115900;28;109324;-56
2023/12/26 04:52:52;;;;;;;5.90;5.30;;;;;;;22.25;32.54;95293.91;6114978;28;109158;-56
2023/12/26 04:55:56;;;;;;;6.70;6.10;;;;;;;22.26;32.64;95289.34;6112404;28;108936;-55
2023/12/26 04:59:00;;;;;;;6.63;5.73;;;;;;;22.26;32.33;95287.47;6116439;28;110190;-55
2023/12/26 05:02:04;;;;;;;5.63;5.03;;;;;;;22.24;32.78;95286.19;6137825;28;109074;-56
2023/12/26 05:05:08;;;;;;;6.37;5.40;;;;;;;22.26;32.73;95286.69;6134731;28;109207;-56
2023/12/26 05:08:11;;;;;;;8.03;5.80;;;;;;;22.22;32.20;95286.50;6111606;28;110013;-56
2023/12/26 05:11:22;;;;;;;6.27;5.67;;;;;;;22.24;32.62;95287.00;6120974;28;109336;-55
2023/12/26 05:14:27;;;;;;;5.87;5.27;;;;;;;22.34;31.64;95291.28;6120480;28;109034;-56
2023/12/26 05:17:30;;;;;;;6.00;5.50;;;;;;;22.39;31.49;95283.19;6112789;28;109086;-56
2023/12/26 05:20:34;;;;;;;6.63;6.00;;;;;;;22.40;32.14;95284.78;6102675;28;109188;-55
2023/12/26 05:23:37;;;;;;;6.33;5.73;;;;;;;22.43;31.43;95273.50;6133403;28;109073;-55
2023/12/26 05:26:40;;;;;;;6.93;6.33;;;;;;;22.45;32.09;95278.53;6136618;28;108968;-56
2023/12/26 05:29:45;;;;;;;6.20;5.60;;;;;;;22.44;32.02;95272.41;6132897;28;108938;-56
2023/12/26 05:32:48;;;;;;;6.60;6.00;;;;;;;22.46;32.11;95274.78;6109830;28;109087;-56
2023/12/26 05:35:52;;;;;;;6.13;5.63;;;;;;;22.46;31.81;95272.09;6129271;28;108988;-55
2023/12/26 05:38:55;;;;;;;6.23;5.73;;;;;;;22.44;31.74;95272.41;6132466;28;109492;-56
2023/12/26 05:41:59;;;;;;;7.17;6.00;;;;;;;22.44;31.95;95280.41;6111727;28;111112;-55
2023/12/26 05:45:04;;;;;;;7.70;6.07;;;;;;;22.45;31.75;95287.31;6125497;28;109880;-55
2023/12/26 05:48:08;;;;;;;8.80;6.67;;;;;;;22.46;32.11;95282.78;6137383;28;110559;-56
2023/12/26 05:51:11;;;;;;;6.60;6.00;;;;;;;22.45;31.93;95281.97;6137153;28;109001;-56
2023/12/26 05:54:14;;;;;;;7.10;6.40;;;;;;;22.46;31.84;95283.56;6123262;28;108969;-56
2023/12/26 05:57:18;;;;;;;6.63;5.70;;;;;;;22.46;32.15;95294.22;6134054;28;110348;-55
2023/12/26 06:00:22;;;;;;;6.30;5.70;;;;;;;22.46;31.62;95288.91;6136395;28;109031;-56
2023/12/26 06:03:26;;;;;;;6.10;5.50;;;;;;;22.46;31.96;95296.88;6135998;28;109035;-56
2023/12/26 06:06:29;;;;;;;6.97;6.27;;;;;;;22.46;31.58;95296.09;6106207;28;110776;-56
2023/12/26 06:09:32;;;;;;;6.83;6.23;;;;;;;22.46;31.87;95293.44;6133991;28;109164;-56
2023/12/26 06:12:35;;;;;;;6.80;6.13;;;;;;;22.45;31.54;95297.97;6116729;28;109192;-56
2023/12/26 06:15:40;;;;;;;6.13;5.53;;;;;;;22.42;32.30;95298.59;6119877;28;109530;-56
2023/12/26 06:18:43;;;;;;;6.77;6.07;;;;;;;22.37;32.48;95301.38;6126551;28;108905;-55
2023/12/26 06:21:47;;;;;;;7.10;6.40;;;;;;;22.33;32.41;95305.72;6139523;28;109083;-56
2023/12/26 06:24:50;;;;;;;8.67;6.90;;;;;;;22.33;32.57;95303.03;6140320;28;110991;-56
2023/12/26 06:27:53;;;;;;;8.10;7.30;;;;;;;22.33;32.30;95311.84;6130408;28;109058;-66
2023/12/26 06:30:57;;;;;;;9.83;8.60;;;;;;;22.34;32.34;95309.94;6139959;28;109186;-56
2023/12/26 06:34:01;;;;;;;9.07;8.20;;;;;;;22.33;32.32;95316.38;6133403;28;109093;-57
2023/12/26 06:37:04;;;;;;;9.77;8.77;;;;;;;22.29;32.28;95315.41;6129321;28;109048;-57
2023/12/26 06:40:09;;;;;;;9.90;8.70;;;;;;;22.30;31.94;95309.00;6108577;28;110187;-56
2023/12/26 06:43:14;;;;;;;9.73;8.83;;;;;;;22.30;32.17;95306.31;6131196;28;108984;-56
2023/12/26 06:46:18;;;;;;;10.83;9.73;;;;;;;22.29;32.44;95315.41;6116388;28;109200;-56
2023/12/26 06:49:22;;;;;;;10.17;9.17;;;;;;;22.31;31.62;95313.22;6111043;28;109238;-57
2023/12/26 06:52:25;;;;;;;10.70;8.90;;;;;;;22.48;31.83;95313.38;6124204;28;109994;-57
2023/12/26 06:55:28;;;;;;;12.70;9.97;;;;;;;22.12;32.34;95318.69;6125857;28;109207;-58
2023/12/26 06:58:31;;;;;;;11.50;10.40;;;;;;;22.13;31.69;95322.16;6124318;28;109255;-58
2023/12/26 07:01:36;;;;;;;12.03;9.40;;;;;;;22.21;32.11;95324.91;6124815;28;110398;-59
2023/12/26 07:04:40;;;;;;;11.30;10.20;;;;;;;22.85;30.89;95335.50;6128527;28;109246;-56
2023/12/26 07:07:44;;;;;;;11.03;10.03;;;;;;;23.21;30.66;95338.13;6136029;28;110047;-56
2023/12/26 07:10:47;;;;;;;12.23;10.90;;;;;;;23.35;30.08;95341.50;6128438;28;109106;-57
2023/12/26 07:13:50;;;;;;;19.47;11.27;;;;;;;23.39;29.74;95339.03;6107307;28;109370;-57
2023/12/26 07:16:55;;;;;;;12.10;10.10;;;;;;;23.32;30.16;95341.31;6130454;28;109382;-57
2023/12/26 07:19:58;;;;;;;18.17;11.60;;;;;;;23.48;30.12;95345.97;6137503;28;109200;-56
2023/12/26 07:23:01;;;;;;;19.67;17.07;;;;;;;23.04;28.79;95349.47;6123834;28;109592;-56
2023/12/26 07:26:04;;;;;;;17.20;15.40;;;;;;;23.11;29.68;95349.81;6109123;28;109386;-78
2023/12/26 07:29:07;;;;;;;16.43;13.00;;;;;;;23.17;29.63;95347.81;6122715;28;110053;-57
2023/12/26 07:32:12;;;;;;;14.23;12.43;;;;;;;23.04;30.06;95354.03;6130939;28;109075;-56
2023/12/26 07:35:15;;;;;;;15.73;12.17;;;;;;;23.14;29.83;95357.22;6116323;28;109555;-52
2023/12/26 07:38:19;;;;;;;16.03;12.27;;;;;;;23.43;29.60;95353.34;6115261;28;110173;-53
2023/12/26 07:41:22;;;;;;;13.17;11.87;;;;;;;23.58;29.35;95350.28;6114816;28;109209;-54
2023/12/26 07:44:25;;;;;;;14.43;12.00;;;;;;;23.67;29.07;95353.75;6114846;28;109184;-54
2023/12/26 07:47:30;;;;;;;12.60;11.27;;;;;;;23.75;29.04;95346.88;6104489;28;109650;-54
2023/12/26 07:50:33;;;;;;;12.47;11.27;;;;;;;23.76;29.23;95345.78;6114885;28;109140;-54
2023/12/26 07:53:36;;;;;;;12.60;11.40;;;;;;;23.76;29.11;95356.47;6114992;28;109224;-54
2023/12/26 07:56:39;;;;;;;13.13;11.83;;;;;;;23.76;29.37;95351.94;6114958;28;110063;-54
2023/12/26 07:59:43;;;;;;;11.73;10.60;;;;;;;23.74;29.30;95354.13;6104541;28;111513;-55
2023/12/26 08:02:47;;;;;;;12.67;11.47;;;;;;;23.74;29.42;95354.13;6115136;28;109228;-54
2023/12/26 08:05:51;;;;;;;12.60;11.27;;;;;;;23.44;30.09;95362.94;6115076;28;109026;-55
2023/12/26 08:08:54;;;;;;;11.30;10.20;;;;;;;23.51;30.21;95353.38;6109671;28;109352;-54
2023/12/26 08:11:57;;;;;;;12.57;11.47;;;;;;;23.61;29.76;95355.00;6109147;28;109933;-54
2023/12/26 08:15:00;;;;;;;11.80;10.60;;;;;;;23.66;30.02;95354.06;6114706;28;110137;-54
2023/12/26 08:18:06;;;;;;;12.03;10.87;;;;;;;23.64;29.71;95348.25;6114360;28;108987;-53
2023/12/26 08:21:09;;;;;;;10.77;9.87;;;;;;;23.63;30.09;95357.38;6104107;28;108989;-54
2023/12/26 08:24:13;;;;;;;11.87;10.67;;;;;;;23.63;30.19;95346.69;6114700;28;109091;-54
2023/12/26 08:27:18;;;;;;;11.40;10.30;;;;;;;23.62;29.80;95345.09;6114127;28;109013;-55
2023/12/26 08:30:21;;;;;;;11.20;10.10;;;;;;;23.63;30.19;95352.81;6114806;28;110116;-54
2023/12/26 08:33:26;;;;;;;11.17;10.07;;;;;;;23.61;29.91;95360.34;6103339;28;109090;-54
2023/12/26 08:36:29;;;;;;;11.90;10.77;;;;;;;23.60;30.20;95354.22;6114181;28;109037;-54
2023/12/26 08:39:32;;;;;;;10.60;9.50;;;;;;;23.60;30.52;95358.78;6113552;28;109340;-54
2023/12/26 08:42:36;;;;;;;10.43;9.53;;;;;;;23.58;29.94;95353.72;6112852;28;109207;-54
2023/12/26 08:45:39;;;;;;;11.43;10.27;;;;;;;23.55;30.53;95357.03;6106390;28;110643;-55
2023/12/26 08:48:44;;;;;;;10.43;9.43;;;;;;;23.56;29.98;95355.13;6114611;28;110055;-55
2023/12/26 08:51:47;;;;;;;10.53;9.53;;;;;;;23.53;30.20;95343.19;6114301;28;109114;-54
2023/12/26 08:54:50;;;;;;;10.73;9.73;;;;;;;23.52;30.10;95346.16;6104303;28;110130;-54
2023/12/26 08:57:53;;;;;;;10.37;9.37;;;;;;;23.50;30.39;95340.31;6113663;28;110126;-54
2023/12/26 09:00:59;;;;;;;9.90;9.00;;;;;;;23.50;30.68;95333.09;6136550;28;108995;-55
2023/12/26 09:04:03;;;;;;;9.90;8.97;;;;;;;23.49;30.38;95342.22;6129563;28;110043;-54
2023/12/26 09:07:07;;;;;;;10.10;9.20;;;;;;;23.49;30.42;95334.19;6118345;28;109204;-54
2023/12/26 09:10:11;;;;;;;9.77;8.77;;;;;;;23.50;30.49;95333.09;6128656;28;109216;-53
2023/12/26 09:13:15;;;;;;;9.80;8.90;;;;;;;23.50;30.31;95333.09;6117892;28;109090;-54
2023/12/26 09:16:19;;;;;;;10.93;9.93;;;;;;;23.30;30.87;95328.28;6134864;28;110036;-56
2023/12/26 09:19:23;;;;;;;11.53;10.40;;;;;;;23.08;32.03;95321.06;6120527;28;109550;-56
2023/12/26 09:22:27;;;;;;;12.40;10.67;;;;;;;23.01;32.38;95318.03;6112920;28;109031;-56
2023/12/26 09:25:30;;;;;;;11.63;10.43;;;;;;;22.96;32.38;95308.28;6135655;28;110550;-56
2023/12/26 09:28:33;;;;;;;11.10;10.00;;;;;;;22.91;32.93;95308.41;6130856;28;109241;-56
2023/12/26 09:31:36;;;;;;;13.17;10.63;;;;;;;22.94;32.69;95299.78;6123857;28;108984;-56
2023/12/26 09:34:41;;;;;;;12.83;10.73;;;;;;;22.97;32.45;95298.38;6127616;28;111134;-56
2023/12/26 09:37:44;;;;;;;12.07;10.83;;;;;;;22.96;32.64;95294.94;6120903;28;109201;-56
2023/12/26 09:40:48;;;;;;;12.37;11.07;;;;;;;22.95;32.51;95289.91;6102534;28;109190;-57
2023/12/26 09:43:51;;;;;;;11.83;10.73;;;;;;;22.97;33.18;95282.38;6125323;28;108855;-57
2023/12/26 09:46:54;;;;;;;12.03;10.83;;;;;;;22.98;33.50;95283.94;6126083;28;109580;-57
2023/12/26 09:49:59;;;;;;;13.07;10.43;;;;;;;23.00;33.48;95271.09;6130593;28;109185;-59
2023/12/26 09:53:08;;;;;;;11.97;10.77;;;;;;;22.99;33.97;95264.16;6121597;28;110910;-57
2023/12/26 09:56:12;;;;;;;13.93;10.43;;;;;;;23.04;33.73;95271.28;6134318;28;109069;-60
2023/12/26 09:59:16;;;;;;;13.93;10.13;;;;;;;23.02;33.74;95266.25;6128046;28;109396;-60
2023/12/26 10:02:20;;;;;;;13.00;10.00;;;;;;;23.02;33.79;95263.59;6135466;28;109526;-59
2023/12/26 10:05:26;;;;;;;14.67;10.40;;;;;;;23.08;33.70;95262.34;6124385;28;109199;-64
2023/12/26 10:08:29;;;;;;;11.77;9.97;;;;;;;23.16;33.43;95252.78;6137623;28;109774;-59
2023/12/26 10:11:33;;;;;;;21.03;10.50;;;;;;;23.21;33.58;95252.69;6137780;28;109527;-61
2023/12/26 10:14:37;;;;;;;12.37;10.20;;;;;;;23.20;33.86;95246.56;6123471;28;109974;-59
2023/12/26 10:17:42;;;;;;;14.20;9.80;;;;;;;23.23;33.90;95253.94;6139640;28;109281;-60
2023/12/26 10:20:46;;;;;;;10.97;9.87;;;;;;;23.22;33.45;95235.56;6140977;28;109224;-61
2023/12/26 10:23:52;;;;;;;12.03;10.17;;;;;;;23.26;33.44;95239.19;6131906;28;109040;-59
2023/12/26 10:26:56;;;;;;;11.00;9.53;;;;;;;23.27;33.87;95232.75;6121842;28;109737;-60
2023/12/26 10:29:59;;;;;;;10.53;9.43;;;;;;;23.32;33.49;95234.50;6130946;28;109068;-61
2023/12/26 10:33:04;;;;;;;10.57;9.47;;;;;;;23.34;33.46;95226.97;6131837;28;109070;-61
2023/12/26 10:36:10;;;;;;;10.83;9.73;;;;;;;23.36;33.66;95230.16;6137077;28;109050;-60
2023/12/26 10:39:15;;;;;;;11.53;9.80;;;;;;;23.39;33.56;95221.53;6126460;28;111575;-60
2023/12/26 10:42:18;;;;;;;11.67;9.57;;;;;;;23.37;33.95;95216.50;6121603;28;110426;-60
2023/12/26 10:45:22;;;;;;;10.17;9.17;;;;;;;23.38;33.67;95211.94;6134376;28;110001;-61
2023/12/26 10:48:28;;;;;;;10.50;9.50;;;;;;;23.39;33.69;95216.19;6118416;28;110405;-61
2023/12/26 10:51:33;;;;;;;10.83;9.53;;;;;;;23.41;33.90;95205.97;6126498;28;109117;-61
2023/12/26 10:54:38;;;;;;;9.60;8.80;;;;;;;23.40;34.27;95207.84;6132461;28;108946;-61
2023/12/26 10:57:42;;;;;;;10.50;9.37;;;;;;;23.40;34.17;95209.75;6120173;28;108815;-62
2023/12/26 13:51:25;;;;;;;5.57;4.63;;;;;;;23.85;36.86;95056.06;6105346;28;109281;-54
2023/12/26 13:54:29;;;;;;;6.27;4.93;;;;;;;23.87;36.76;95053.09;6115942;28;110064;-54
2023/12/26 13:57:32;;;;;;;5.60;5.10;;;;;;;23.85;36.65;95056.06;6118693;28;109474;-54
2023/12/26 14:00:36;;;;;;;5.23;4.60;;;;;;;23.83;36.73;95052.94;6139405;28;110006;-54
2023/12/26 14:03:44;;;;;;;5.70;5.20;;;;;;;23.89;37.07;95051.69;6115843;28;109033;-54
2023/12/26 14:06:51;;;;;;;5.60;5.10;;;;;;;23.89;36.99;95050.91;6117163;28;109254;-54
2023/12/26 14:09:54;;;;;;;5.40;4.43;;;;;;;23.87;37.11;95043.19;6128934;28;110418;-54
2023/12/26 14:12:57;;;;;;;4.93;4.40;;;;;;;23.85;36.98;95042.69;6129227;28;109137;-54
2023/12/26 14:16:01;;;;;;;5.80;4.03;;;;;;;23.86;36.99;95040.84;6139735;28;109056;-54
2023/12/26 14:19:05;;;;;;;5.53;4.63;;;;;;;23.82;37.30;95035.31;6139951;28;109091;-54
2023/12/26 14:22:10;;;;;;;5.10;4.40;;;;;;;23.85;37.36;95034.69;6139841;28;109154;-54
2023/12/26 14:25:13;;;;;;;4.93;4.20;;;;;;;23.85;37.32;95033.91;6121737;28;109939;-54
2023/12/26 14:28:16;;;;;;;4.90;4.40;;;;;;;23.84;37.16;95033.13;6122028;28;110536;-54
2023/12/26 14:31:22;;;;;;;5.10;4.20;;;;;;;23.83;37.60;95038.78;6137676;28;109091;-54
2023/12/26 14:34:28;;;;;;;4.30;3.87;;;;;;;23.83;37.18;95036.09;6139216;28;110074;-54
2023/12/26 14:37:33;;;;;;;4.77;4.30;;;;;;;23.81;37.66;95036.44;6118715;28;110349;-56
2023/12/26 14:40:36;;;;;;;5.47;4.40;;;;;;;23.84;37.58;95037.69;6129998;28;109132;-56
2023/12/26 14:43:39;;;;;;;5.53;4.40;;;;;;;23.81;37.53;95035.66;6135061;28;109274;-61
2023/12/26 14:46:42;;;;;;;4.73;4.27;;;;;;;23.71;37.45;95041.34;6131398;28;109593;-53
2023/12/26 14:49:46;;;;;;;5.37;4.50;;;;;;;23.80;37.21;95047.44;6133407;28;109610;-57
2023/12/26 14:52:50;;;;;;;5.60;4.47;;;;;;;23.82;37.00;95047.91;6138392;28;109089;-56
2023/12/26 14:56:31;;;;;;;6.27;4.20;;;;;;;23.84;37.44;95054.50;6138925;28;108800;-56
2023/12/26 15:00:14;;;;;;;4.90;4.50;;;;;;;23.83;37.31;95044.13;6127392;28;109854;-57
2023/12/26 15:03:20;;;;;;;4.87;4.47;;;;;;;23.82;37.68;95034.53;6131837;28;109073;-61
2023/12/26 15:06:24;;;;;;;5.00;4.33;;;;;;;23.73;37.27;95031.91;6114447;28;109946;-59
2023/12/26 15:09:29;;;;;;;6.40;5.10;;;;;;;23.58;36.95;95032.38;6115346;28;109365;-59
2023/12/26 15:12:32;;;;;;;5.80;5.20;;;;;;;23.47;36.81;95031.09;6131009;28;109395;-61
2023/12/26 15:15:36;;;;;;;7.77;5.70;;;;;;;23.43;36.70;95030.19;6127872;28;109488;-60
2023/12/26 15:18:40;;;;;;;5.80;5.13;;;;;;;23.42;36.82;95036.63;6117622;28;109455;-60
2023/12/26 15:21:45;;;;;;;11.70;5.80;;;;;;;23.40;36.49;95030.81;6115827;28;109806;-58
2023/12/26 15:24:49;;;;;;;8.37;5.50;;;;;;;23.29;36.53;95043.66;6115601;28;110191;-59
2023/12/26 15:27:53;;;;;;;8.80;6.50;;;;;;;23.40;36.27;95028.13;6129032;28;109167;-60
2023/12/26 15:30:57;;;;;;;7.17;6.37;;;;;;;23.50;36.05;95035.81;6124415;28;109285;-60
2023/12/26 15:34:01;;;;;;;6.70;6.10;;;;;;;23.48;36.13;95025.44;6112814;28;109233;-60
2023/12/26 15:37:04;;;;;;;8.60;6.90;;;;;;;23.52;36.10;95021.06;6135475;28;110008;-57
2023/12/26 15:40:09;;;;;;;8.53;6.27;;;;;;;23.55;36.02;95016.97;6124667;28;109267;-57
2023/12/26 15:43:13;;;;;;;8.73;7.73;;;;;;;23.50;36.14;95025.13;6119811;28;110007;-57
2023/12/26 15:46:18;;;;;;;7.40;6.70;;;;;;;23.40;35.90;95034.25;6132763;28;109297;-59
2023/12/26 15:49:21;;;;;;;7.37;6.67;;;;;;;23.39;35.95;95042.59;6128701;28;109061;-58
2023/12/26 15:52:24;;;;;;;8.60;7.80;;;;;;;23.37;36.12;95050.13;6133972;28;111113;-59
2023/12/26 15:55:29;;;;;;;11.10;8.13;;;;;;;23.34;36.49;95042.72;6105168;28;110136;-64
2023/12/26 15:58:32;;;;;;;10.63;8.47;;;;;;;23.33;36.20;95038.47;6116660;28;110105;-59
2023/12/26 16:01:36;;;;;;;8.87;6.93;;;;;;;23.35;36.01;95036.28;6132865;28;109318;-59
2023/12/26 16:04:39;;;;;;;8.13;7.30;;;;;;;23.28;36.25;95034.84;6132000;28;110362;-59
2023/12/26 16:07:42;;;;;;;7.70;7.00;;;;;;;23.22;35.99;95035.31;6125648;28;109227;-60
2023/12/26 16:10:47;;;;;;;9.60;7.60;;;;;;;23.19;36.29;95035.97;6125439;28;109237;-59
2023/12/26 16:13:50;;;;;;;8.63;7.80;;;;;;;23.22;35.70;95038.00;6119398;28;109637;-59
2023/12/26 16:16:54;;;;;;;8.60;7.70;;;;;;;23.27;35.85;95030.59;6134895;28;109219;-60
2023/12/26 16:19:57;;;;;;;12.10;8.40;;;;;;;23.27;36.13;95043.97;6113986;28;110088;-60
2023/12/26 16:23:00;;;;;;;9.63;8.50;;;;;;;23.25;35.65;95043.50;6130186;28;108772;-59
2023/12/26 16:26:06;;;;;;;11.60;8.63;;;;;;;23.30;36.04;95043.34;6126273;28;109319;-60
2023/12/26 16:29:10;;;;;;;8.90;8.00;;;;;;;23.30;35.94;95040.69;6107356;28;109175;-57
2023/12/26 16:32:14;;;;;;;9.93;8.93;;;;;;;23.27;36.14;95029.81;6125130;28;109382;-59
2023/12/26 16:35:18;;;;;;;10.77;8.30;;;;;;;23.28;35.95;95037.50;6133158;28;108898;-59
2023/12/26 16:38:23;;;;;;;10.93;8.40;;;;;;;23.25;35.74;95024.00;6113024;28;109074;-59
2023/12/26 16:41:27;;;;;;;10.60;8.40;;;;;;;23.26;35.41;95031.72;6104930;28;109581;-58
2023/12/26 16:44:31;;;;;;;9.30;8.10;;;;;;;23.25;35.60;95043.50;6132468;28;110552;-58
2023/12/26 16:47:34;;;;;;;9.83;8.83;;;;;;;23.26;35.85;95028.25;6132294;28;109457;-57
2023/12/26 16:50:37;;;;;;;9.70;8.70;;;;;;;23.25;35.66;95032.03;6116562;28;109081;-58
2023/12/26 16:53:41;;;;;;;10.77;8.70;;;;;;;23.25;35.86;95029.34;6103943;28;109607;-58
2023/12/26 16:56:46;;;;;;;10.77;8.27;;;;;;;23.24;35.40;95028.56;6131447;28;109232;-56
2023/12/26 16:59:50;;;;;;;10.57;9.20;;;;;;;23.27;35.79;95027.16;6113953;28;109019;-57
2023/12/26 17:02:54;;;;;;;9.47;8.47;;;;;;;23.28;35.19;95037.50;6109937;28;110098;-57